sensor_id;sensor_type;location;lat;lon;timestamp;P1;durP1;ratioP1;P2;durP2;ratioP2
92;SDS011;16232;48.800;9.002;2022-09-01T00:02:13;25.67;;;22.97;;
92;SDS011;16232;48.800;9.002;2022-09-01T00:04:41;25.60;;;22.80;;
92;SDS011;16232;48.800;9.002;2022-09-01T00:07:09;25.27;;;22.73;;
92;SDS011;16232;48.800;9.002;2022-09-01T00:09:37;27.17;;;24.13;;
92;SDS011;16232;48.800;9.002;2022-09-01T00:12:05;22.83;;;20.53;;
92;SDS011;16232;48.800;9.002;2022-09-01T00:14:35;28.87;;;25.80;;
92;SDS011;16232;48.800;9.002;2022-09-01T00:17:04;29.67;;;26.40;;
92;SDS011;16232;48.800;9.002;2022-09-01T00:19:33;27.83;;;24.80;;
92;SDS011;16232;48.800;9.002;2022-09-01T00:22:01;24.90;;;22.33;;
92;SDS011;16232;48.800;9.002;2022-09-01T00:24:30;25.93;;;23.23;;
92;SDS011;16232;48.800;9.002;2022-09-01T00:26:57;29.50;;;26.23;;
92;SDS011;16232;48.800;9.002;2022-09-01T00:29:25;22.57;;;20.50;;
92;SDS011;16232;48.800;9.002;2022-09-01T00:31:52;21.30;;;19.40;;
92;SDS011;16232;48.800;9.002;2022-09-01T00:34:19;24.03;;;21.67;;
92;SDS011;16232;48.800;9.002;2022-09-01T00:36:48;27.57;;;22.87;;
92;SDS011;16232;48.800;9.002;2022-09-01T00:39:16;25.77;;;23.03;;
92;SDS011;16232;48.800;9.002;2022-09-01T00:41:43;22.60;;;20.50;;
92;SDS011;16232;48.800;9.002;2022-09-01T00:44:12;24.50;;;22.03;;
92;SDS011;16232;48.800;9.002;2022-09-01T00:46:41;24.63;;;22.07;;
92;SDS011;16232;48.800;9.002;2022-09-01T00:49:10;18.77;;;17.07;;
92;SDS011;16232;48.800;9.002;2022-09-01T00:51:38;29.03;;;23.53;;
92;SDS011;16232;48.800;9.002;2022-09-01T00:54:08;28.47;;;24.80;;
92;SDS011;16232;48.800;9.002;2022-09-01T00:56:37;24.07;;;21.67;;
92;SDS011;16232;48.800;9.002;2022-09-01T00:59:05;21.47;;;19.37;;
92;SDS011;16232;48.800;9.002;2022-09-01T01:01:33;40.63;;;31.40;;
92;SDS011;16232;48.800;9.002;2022-09-01T01:04:01;25.77;;;22.73;;
92;SDS011;16232;48.800;9.002;2022-09-01T01:06:28;23.97;;;21.50;;
92;SDS011;16232;48.800;9.002;2022-09-01T01:08:57;19.47;;;17.73;;
92;SDS011;16232;48.800;9.002;2022-09-01T01:11:28;21.63;;;19.40;;
92;SDS011;16232;48.800;9.002;2022-09-01T01:13:57;19.10;;;17.23;;
92;SDS011;16232;48.800;9.002;2022-09-01T01:16:25;21.20;;;19.17;;
92;SDS011;16232;48.800;9.002;2022-09-01T01:18:54;22.80;;;20.37;;
92;SDS011;16232;48.800;9.002;2022-09-01T01:21:24;20.60;;;18.50;;
92;SDS011;16232;48.800;9.002;2022-09-01T01:24:22;24.77;;;22.07;;
92;SDS011;16232;48.800;9.002;2022-09-01T01:26:49;22.07;;;19.93;;
92;SDS011;16232;48.800;9.002;2022-09-01T01:29:17;24.80;;;21.97;;
92;SDS011;16232;48.800;9.002;2022-09-01T01:31:44;21.50;;;19.30;;
92;SDS011;16232;48.800;9.002;2022-09-01T01:34:13;23.20;;;20.87;;
92;SDS011;16232;48.800;9.002;2022-09-01T01:36:41;25.03;;;22.37;;
92;SDS011;16232;48.800;9.002;2022-09-01T01:39:12;22.63;;;20.43;;
92;SDS011;16232;48.800;9.002;2022-09-01T01:41:41;25.07;;;22.33;;
92;SDS011;16232;48.800;9.002;2022-09-01T01:44:11;24.50;;;21.73;;
92;SDS011;16232;48.800;9.002;2022-09-01T01:46:39;20.50;;;18.47;;
92;SDS011;16232;48.800;9.002;2022-09-01T01:49:07;23.97;;;21.23;;
92;SDS011;16232;48.800;9.002;2022-09-01T01:51:35;20.10;;;17.93;;
92;SDS011;16232;48.800;9.002;2022-09-01T01:54:03;22.47;;;20.20;;
92;SDS011;16232;48.800;9.002;2022-09-01T01:56:32;23.87;;;20.90;;
92;SDS011;16232;48.800;9.002;2022-09-01T01:59:05;21.00;;;18.87;;
92;SDS011;16232;48.800;9.002;2022-09-01T02:01:34;30.23;;;24.63;;
92;SDS011;16232;48.800;9.002;2022-09-01T02:04:03;34.80;;;26.37;;
92;SDS011;16232;48.800;9.002;2022-09-01T02:06:31;23.53;;;21.10;;
92;SDS011;16232;48.800;9.002;2022-09-01T02:08:59;23.40;;;20.90;;
92;SDS011;16232;48.800;9.002;2022-09-01T02:11:27;30.27;;;25.23;;
92;SDS011;16232;48.800;9.002;2022-09-01T02:13:57;28.10;;;25.17;;
92;SDS011;16232;48.800;9.002;2022-09-01T02:16:27;20.33;;;18.37;;
92;SDS011;16232;48.800;9.002;2022-09-01T02:18:55;20.57;;;18.73;;
92;SDS011;16232;48.800;9.002;2022-09-01T02:21:23;23.93;;;19.53;;
92;SDS011;16232;48.800;9.002;2022-09-01T02:23:52;20.23;;;18.13;;
92;SDS011;16232;48.800;9.002;2022-09-01T02:26:23;24.60;;;21.47;;
92;SDS011;16232;48.800;9.002;2022-09-01T02:28:55;20.93;;;19.03;;
92;SDS011;16232;48.800;9.002;2022-09-01T02:31:23;27.17;;;23.83;;
92;SDS011;16232;48.800;9.002;2022-09-01T02:33:53;24.77;;;22.20;;
92;SDS011;16232;48.800;9.002;2022-09-01T02:36:21;22.13;;;19.80;;
92;SDS011;16232;48.800;9.002;2022-09-01T02:38:49;28.80;;;21.30;;
92;SDS011;16232;48.800;9.002;2022-09-01T02:41:17;25.97;;;21.23;;
92;SDS011;16232;48.800;9.002;2022-09-01T02:43:47;31.50;;;26.70;;
92;SDS011;16232;48.800;9.002;2022-09-01T02:46:14;25.33;;;22.73;;
92;SDS011;16232;48.800;9.002;2022-09-01T02:48:42;33.20;;;27.63;;
92;SDS011;16232;48.800;9.002;2022-09-01T02:51:18;26.53;;;23.87;;
92;SDS011;16232;48.800;9.002;2022-09-01T02:53:46;21.87;;;19.53;;
92;SDS011;16232;48.800;9.002;2022-09-01T02:56:16;22.87;;;20.87;;
92;SDS011;16232;48.800;9.002;2022-09-01T02:58:44;25.73;;;23.10;;
92;SDS011;16232;48.800;9.002;2022-09-01T03:01:13;32.13;;;27.87;;
92;SDS011;16232;48.800;9.002;2022-09-01T03:03:45;32.87;;;29.03;;
92;SDS011;16232;48.800;9.002;2022-09-01T03:06:12;21.90;;;19.73;;
92;SDS011;16232;48.800;9.002;2022-09-01T03:08:50;26.43;;;23.93;;
92;SDS011;16232;48.800;9.002;2022-09-01T03:11:17;25.80;;;23.23;;
92;SDS011;16232;48.800;9.002;2022-09-01T03:13:44;30.40;;;26.40;;
92;SDS011;16232;48.800;9.002;2022-09-01T03:16:12;30.10;;;27.00;;
92;SDS011;16232;48.800;9.002;2022-09-01T03:18:40;34.07;;;29.37;;
92;SDS011;16232;48.800;9.002;2022-09-01T03:21:08;24.00;;;21.70;;
92;SDS011;16232;48.800;9.002;2022-09-01T03:23:41;25.70;;;23.20;;
92;SDS011;16232;48.800;9.002;2022-09-01T03:26:10;26.20;;;23.53;;
92;SDS011;16232;48.800;9.002;2022-09-01T03:28:38;29.73;;;26.53;;
92;SDS011;16232;48.800;9.002;2022-09-01T03:31:05;23.30;;;21.20;;
92;SDS011;16232;48.800;9.002;2022-09-01T03:33:33;25.93;;;22.50;;
92;SDS011;16232;48.800;9.002;2022-09-01T03:36:00;24.77;;;22.27;;
92;SDS011;16232;48.800;9.002;2022-09-01T03:38:28;27.70;;;24.73;;
92;SDS011;16232;48.800;9.002;2022-09-01T03:40:59;30.47;;;27.27;;
92;SDS011;16232;48.800;9.002;2022-09-01T03:43:28;27.07;;;24.50;;
92;SDS011;16232;48.800;9.002;2022-09-01T03:45:56;21.63;;;19.63;;
92;SDS011;16232;48.800;9.002;2022-09-01T03:48:25;22.13;;;19.93;;
92;SDS011;16232;48.800;9.002;2022-09-01T03:50:53;27.77;;;25.10;;
92;SDS011;16232;48.800;9.002;2022-09-01T03:53:22;34.60;;;30.83;;
92;SDS011;16232;48.800;9.002;2022-09-01T03:55:51;24.73;;;22.47;;
92;SDS011;16232;48.800;9.002;2022-09-01T03:58:20;27.57;;;24.73;;
92;SDS011;16232;48.800;9.002;2022-09-01T04:00:49;24.73;;;22.30;;
92;SDS011;16232;48.800;9.002;2022-09-01T04:03:20;23.30;;;21.07;;
92;SDS011;16232;48.800;9.002;2022-09-01T04:05:48;20.83;;;18.83;;
92;SDS011;16232;48.800;9.002;2022-09-01T04:08:17;23.90;;;21.60;;
92;SDS011;16232;48.800;9.002;2022-09-01T04:10:46;27.73;;;24.87;;
92;SDS011;16232;48.800;9.002;2022-09-01T04:13:14;32.37;;;28.93;;
92;SDS011;16232;48.800;9.002;2022-09-01T04:15:41;30.07;;;25.07;;
92;SDS011;16232;48.800;9.002;2022-09-01T04:18:10;31.40;;;28.10;;
92;SDS011;16232;48.800;9.002;2022-09-01T04:20:45;27.27;;;24.60;;
92;SDS011;16232;48.800;9.002;2022-09-01T04:23:16;30.47;;;27.37;;
92;SDS011;16232;48.800;9.002;2022-09-01T04:25:51;32.03;;;28.57;;
92;SDS011;16232;48.800;9.002;2022-09-01T04:28:19;38.77;;;33.37;;
92;SDS011;16232;48.800;9.002;2022-09-01T04:30:54;30.60;;;27.03;;
92;SDS011;16232;48.800;9.002;2022-09-01T04:33:24;34.07;;;30.47;;
92;SDS011;16232;48.800;9.002;2022-09-01T04:35:52;24.93;;;22.70;;
92;SDS011;16232;48.800;9.002;2022-09-01T04:38:23;23.03;;;20.87;;
92;SDS011;16232;48.800;9.002;2022-09-01T04:40:53;30.30;;;26.93;;
92;SDS011;16232;48.800;9.002;2022-09-01T04:43:21;30.10;;;26.83;;
92;SDS011;16232;48.800;9.002;2022-09-01T04:45:49;25.03;;;22.63;;
92;SDS011;16232;48.800;9.002;2022-09-01T04:48:17;30.27;;;27.07;;
92;SDS011;16232;48.800;9.002;2022-09-01T04:50:47;33.10;;;29.50;;
92;SDS011;16232;48.800;9.002;2022-09-01T04:53:16;34.03;;;29.27;;
92;SDS011;16232;48.800;9.002;2022-09-01T04:55:44;35.30;;;29.77;;
92;SDS011;16232;48.800;9.002;2022-09-01T04:58:12;31.20;;;27.67;;
92;SDS011;16232;48.800;9.002;2022-09-01T05:00:42;27.70;;;23.67;;
92;SDS011;16232;48.800;9.002;2022-09-01T05:03:12;25.50;;;22.63;;
92;SDS011;16232;48.800;9.002;2022-09-01T05:05:42;28.20;;;25.23;;
92;SDS011;16232;48.800;9.002;2022-09-01T05:08:12;27.27;;;24.23;;
92;SDS011;16232;48.800;9.002;2022-09-01T05:10:40;30.73;;;27.43;;
92;SDS011;16232;48.800;9.002;2022-09-01T05:13:08;31.30;;;27.97;;
92;SDS011;16232;48.800;9.002;2022-09-01T05:15:37;33.90;;;28.33;;
92;SDS011;16232;48.800;9.002;2022-09-01T05:18:11;37.43;;;31.80;;
92;SDS011;16232;48.800;9.002;2022-09-01T05:20:39;35.67;;;31.97;;
92;SDS011;16232;48.800;9.002;2022-09-01T05:23:07;31.83;;;28.47;;
92;SDS011;16232;48.800;9.002;2022-09-01T05:25:39;28.93;;;25.23;;
92;SDS011;16232;48.800;9.002;2022-09-01T05:28:08;34.40;;;30.73;;
92;SDS011;16232;48.800;9.002;2022-09-01T05:30:36;31.90;;;27.37;;
92;SDS011;16232;48.800;9.002;2022-09-01T05:33:04;32.53;;;28.57;;
92;SDS011;16232;48.800;9.002;2022-09-01T05:35:34;42.23;;;33.03;;
92;SDS011;16232;48.800;9.002;2022-09-01T05:38:02;57.97;;;40.67;;
92;SDS011;16232;48.800;9.002;2022-09-01T05:40:33;35.57;;;31.87;;
92;SDS011;16232;48.800;9.002;2022-09-01T05:43:07;42.47;;;36.00;;
92;SDS011;16232;48.800;9.002;2022-09-01T05:45:39;31.93;;;28.53;;
92;SDS011;16232;48.800;9.002;2022-09-01T05:48:08;37.80;;;32.97;;
92;SDS011;16232;48.800;9.002;2022-09-01T05:50:38;38.50;;;33.67;;
92;SDS011;16232;48.800;9.002;2022-09-01T05:53:07;34.27;;;30.73;;
92;SDS011;16232;48.800;9.002;2022-09-01T05:55:40;44.43;;;35.40;;
92;SDS011;16232;48.800;9.002;2022-09-01T05:58:11;34.67;;;30.90;;
92;SDS011;16232;48.800;9.002;2022-09-01T06:00:40;45.47;;;36.03;;
92;SDS011;16232;48.800;9.002;2022-09-01T06:03:08;36.53;;;32.40;;
92;SDS011;16232;48.800;9.002;2022-09-01T06:05:35;33.40;;;29.73;;
92;SDS011;16232;48.800;9.002;2022-09-01T06:08:04;33.60;;;30.13;;
92;SDS011;16232;48.800;9.002;2022-09-01T06:10:32;35.80;;;32.07;;
92;SDS011;16232;48.800;9.002;2022-09-01T06:13:01;37.63;;;33.53;;
92;SDS011;16232;48.800;9.002;2022-09-01T06:15:31;32.50;;;29.03;;
92;SDS011;16232;48.800;9.002;2022-09-01T06:18:03;36.77;;;32.33;;
92;SDS011;16232;48.800;9.002;2022-09-01T06:20:31;31.03;;;28.03;;
92;SDS011;16232;48.800;9.002;2022-09-01T06:22:58;25.47;;;23.17;;
92;SDS011;16232;48.800;9.002;2022-09-01T06:25:26;30.43;;;27.50;;
92;SDS011;16232;48.800;9.002;2022-09-01T06:27:55;33.27;;;30.07;;
92;SDS011;16232;48.800;9.002;2022-09-01T06:30:22;34.77;;;31.43;;
92;SDS011;16232;48.800;9.002;2022-09-01T06:32:52;33.23;;;30.10;;
92;SDS011;16232;48.800;9.002;2022-09-01T06:35:20;41.40;;;37.20;;
92;SDS011;16232;48.800;9.002;2022-09-01T06:37:49;33.63;;;30.40;;
92;SDS011;16232;48.800;9.002;2022-09-01T06:40:16;34.23;;;31.10;;
92;SDS011;16232;48.800;9.002;2022-09-01T06:42:44;27.93;;;25.43;;
92;SDS011;16232;48.800;9.002;2022-09-01T06:45:12;24.23;;;22.17;;
92;SDS011;16232;48.800;9.002;2022-09-01T06:47:40;21.80;;;19.90;;
92;SDS011;16232;48.800;9.002;2022-09-01T06:50:11;22.90;;;20.87;;
92;SDS011;16232;48.800;9.002;2022-09-01T06:52:39;22.23;;;20.23;;
92;SDS011;16232;48.800;9.002;2022-09-01T06:55:07;25.70;;;23.50;;
92;SDS011;16232;48.800;9.002;2022-09-01T06:57:35;23.23;;;21.13;;
92;SDS011;16232;48.800;9.002;2022-09-01T07:00:03;22.13;;;20.17;;
92;SDS011;16232;48.800;9.002;2022-09-01T07:02:40;21.23;;;19.33;;
92;SDS011;16232;48.800;9.002;2022-09-01T07:05:08;23.63;;;21.43;;
92;SDS011;16232;48.800;9.002;2022-09-01T07:07:37;23.40;;;21.27;;
92;SDS011;16232;48.800;9.002;2022-09-01T07:10:05;24.40;;;22.20;;
92;SDS011;16232;48.800;9.002;2022-09-01T07:12:32;21.97;;;19.87;;
92;SDS011;16232;48.800;9.002;2022-09-01T07:15:00;20.23;;;18.33;;
92;SDS011;16232;48.800;9.002;2022-09-01T07:17:28;20.07;;;18.13;;
92;SDS011;16232;48.800;9.002;2022-09-01T07:19:55;19.10;;;17.33;;
92;SDS011;16232;48.800;9.002;2022-09-01T07:22:23;20.23;;;18.30;;
92;SDS011;16232;48.800;9.002;2022-09-01T07:24:52;22.53;;;20.43;;
92;SDS011;16232;48.800;9.002;2022-09-01T07:27:21;19.97;;;18.27;;
92;SDS011;16232;48.800;9.002;2022-09-01T07:29:52;16.90;;;15.30;;
92;SDS011;16232;48.800;9.002;2022-09-01T07:32:21;16.17;;;14.57;;
92;SDS011;16232;48.800;9.002;2022-09-01T07:34:49;17.93;;;16.37;;
92;SDS011;16232;48.800;9.002;2022-09-01T07:37:16;20.07;;;18.27;;
92;SDS011;16232;48.800;9.002;2022-09-01T07:39:47;17.33;;;15.73;;
92;SDS011;16232;48.800;9.002;2022-09-01T07:42:17;19.93;;;18.17;;
92;SDS011;16232;48.800;9.002;2022-09-01T07:44:44;17.63;;;16.13;;
92;SDS011;16232;48.800;9.002;2022-09-01T07:47:11;17.03;;;15.53;;
92;SDS011;16232;48.800;9.002;2022-09-01T07:49:40;16.20;;;14.80;;
92;SDS011;16232;48.800;9.002;2022-09-01T07:52:07;17.03;;;15.53;;
92;SDS011;16232;48.800;9.002;2022-09-01T07:54:35;17.97;;;16.37;;
92;SDS011;16232;48.800;9.002;2022-09-01T07:57:02;19.67;;;17.80;;
92;SDS011;16232;48.800;9.002;2022-09-01T07:59:31;18.73;;;17.13;;
92;SDS011;16232;48.800;9.002;2022-09-01T08:01:59;18.17;;;16.43;;
92;SDS011;16232;48.800;9.002;2022-09-01T08:04:30;18.50;;;16.90;;
92;SDS011;16232;48.800;9.002;2022-09-01T08:06:58;20.57;;;18.77;;
92;SDS011;16232;48.800;9.002;2022-09-01T08:09:27;17.13;;;15.63;;
92;SDS011;16232;48.800;9.002;2022-09-01T08:11:54;18.10;;;16.60;;
92;SDS011;16232;48.800;9.002;2022-09-01T08:14:22;16.97;;;15.47;;
92;SDS011;16232;48.800;9.002;2022-09-01T08:16:50;16.70;;;15.30;;
92;SDS011;16232;48.800;9.002;2022-09-01T08:19:18;18.37;;;16.63;;
92;SDS011;16232;48.800;9.002;2022-09-01T08:21:45;15.97;;;14.53;;
92;SDS011;16232;48.800;9.002;2022-09-01T08:24:12;16.77;;;15.27;;
92;SDS011;16232;48.800;9.002;2022-09-01T08:26:40;14.67;;;13.37;;
92;SDS011;16232;48.800;9.002;2022-09-01T08:29:07;15.60;;;14.20;;
92;SDS011;16232;48.800;9.002;2022-09-01T08:31:34;14.97;;;13.67;;
92;SDS011;16232;48.800;9.002;2022-09-01T08:34:03;14.97;;;13.67;;
92;SDS011;16232;48.800;9.002;2022-09-01T08:36:30;13.63;;;12.43;;
92;SDS011;16232;48.800;9.002;2022-09-01T08:38:57;11.67;;;10.60;;
92;SDS011;16232;48.800;9.002;2022-09-01T08:41:28;14.37;;;11.83;;
92;SDS011;16232;48.800;9.002;2022-09-01T08:43:59;12.77;;;11.50;;
92;SDS011;16232;48.800;9.002;2022-09-01T08:46:31;15.60;;;14.27;;
92;SDS011;16232;48.800;9.002;2022-09-01T08:49:00;12.40;;;11.27;;
92;SDS011;16232;48.800;9.002;2022-09-01T08:51:31;13.03;;;11.50;;
92;SDS011;16232;48.800;9.002;2022-09-01T08:54:02;11.23;;;10.23;;
92;SDS011;16232;48.800;9.002;2022-09-01T08:56:32;11.33;;;10.33;;
92;SDS011;16232;48.800;9.002;2022-09-01T08:59:02;10.93;;;10.03;;
92;SDS011;16232;48.800;9.002;2022-09-01T09:01:30;12.63;;;11.63;;
92;SDS011;16232;48.800;9.002;2022-09-01T09:04:08;11.83;;;10.83;;
92;SDS011;16232;48.800;9.002;2022-09-01T09:06:40;12.40;;;11.20;;
92;SDS011;16232;48.800;9.002;2022-09-01T09:09:11;13.33;;;12.03;;
92;SDS011;16232;48.800;9.002;2022-09-01T09:11:55;10.63;;;9.63;;
92;SDS011;16232;48.800;9.002;2022-09-01T09:14:27;10.23;;;9.20;;
92;SDS011;16232;48.800;9.002;2022-09-01T09:16:59;10.70;;;9.70;;
92;SDS011;16232;48.800;9.002;2022-09-01T09:19:29;9.23;;;8.53;;
92;SDS011;16232;48.800;9.002;2022-09-01T09:21:58;10.17;;;9.37;;
92;SDS011;16232;48.800;9.002;2022-09-01T09:24:27;9.13;;;8.23;;
92;SDS011;16232;48.800;9.002;2022-09-01T09:27:14;8.73;;;7.87;;
92;SDS011;16232;48.800;9.002;2022-09-01T09:29:42;9.07;;;8.27;;
92;SDS011;16232;48.800;9.002;2022-09-01T09:32:09;8.50;;;7.80;;
92;SDS011;16232;48.800;9.002;2022-09-01T09:34:37;7.93;;;7.27;;
92;SDS011;16232;48.800;9.002;2022-09-01T09:37:23;7.60;;;7.00;;
92;SDS011;16232;48.800;9.002;2022-09-01T09:40:02;8.57;;;6.63;;
92;SDS011;16232;48.800;9.002;2022-09-01T09:42:31;7.50;;;6.90;;
92;SDS011;16232;48.800;9.002;2022-09-01T09:44:58;7.03;;;6.53;;
92;SDS011;16232;48.800;9.002;2022-09-01T09:47:37;7.37;;;6.67;;
92;SDS011;16232;48.800;9.002;2022-09-01T09:50:13;7.03;;;6.33;;
92;SDS011;16232;48.800;9.002;2022-09-01T09:52:45;6.73;;;6.13;;
92;SDS011;16232;48.800;9.002;2022-09-01T09:55:20;6.27;;;5.77;;
92;SDS011;16232;48.800;9.002;2022-09-01T09:57:48;6.03;;;5.47;;
92;SDS011;16232;48.800;9.002;2022-09-01T10:00:18;5.53;;;5.13;;
92;SDS011;16232;48.800;9.002;2022-09-01T10:02:47;5.40;;;4.90;;
92;SDS011;16232;48.800;9.002;2022-09-01T10:05:23;5.17;;;4.77;;
92;SDS011;16232;48.800;9.002;2022-09-01T10:07:52;5.90;;;5.40;;
92;SDS011;16232;48.800;9.002;2022-09-01T10:10:24;6.60;;;6.10;;
92;SDS011;16232;48.800;9.002;2022-09-01T10:12:52;6.40;;;5.80;;
92;SDS011;16232;48.800;9.002;2022-09-01T10:15:20;6.47;;;5.97;;
92;SDS011;16232;48.800;9.002;2022-09-01T10:17:48;6.90;;;6.40;;
92;SDS011;16232;48.800;9.002;2022-09-01T10:20:18;6.57;;;6.03;;
92;SDS011;16232;48.800;9.002;2022-09-01T10:22:46;5.67;;;5.20;;
92;SDS011;16232;48.800;9.002;2022-09-01T10:25:17;5.20;;;4.80;;
92;SDS011;16232;48.800;9.002;2022-09-01T10:27:46;6.77;;;5.70;;
92;SDS011;16232;48.800;9.002;2022-09-01T10:30:15;6.20;;;5.77;;
92;SDS011;16232;48.800;9.002;2022-09-01T10:32:43;5.53;;;5.13;;
92;SDS011;16232;48.800;9.002;2022-09-01T10:35:11;5.30;;;4.90;;
92;SDS011;16232;48.800;9.002;2022-09-01T10:37:40;5.63;;;5.17;;
92;SDS011;16232;48.800;9.002;2022-09-01T10:40:08;5.70;;;5.20;;
92;SDS011;16232;48.800;9.002;2022-09-01T10:42:37;5.93;;;5.43;;
92;SDS011;16232;48.800;9.002;2022-09-01T10:45:07;5.50;;;5.07;;
92;SDS011;16232;48.800;9.002;2022-09-01T10:47:43;5.70;;;5.30;;
92;SDS011;16232;48.800;9.002;2022-09-01T10:50:23;5.57;;;5.07;;
92;SDS011;16232;48.800;9.002;2022-09-01T10:52:55;5.50;;;5.00;;
92;SDS011;16232;48.800;9.002;2022-09-01T11:00:59;4.97;;;4.57;;
92;SDS011;16232;48.800;9.002;2022-09-01T11:03:49;4.63;;;4.27;;
92;SDS011;16232;48.800;9.002;2022-09-01T11:06:30;5.27;;;4.87;;
92;SDS011;16232;48.800;9.002;2022-09-01T11:08:59;5.57;;;5.17;;
92;SDS011;16232;48.800;9.002;2022-09-01T11:11:28;4.30;;;3.87;;
92;SDS011;16232;48.800;9.002;2022-09-01T11:13:57;5.00;;;4.60;;
92;SDS011;16232;48.800;9.002;2022-09-01T11:16:28;5.67;;;5.00;;
92;SDS011;16232;48.800;9.002;2022-09-01T11:19:14;4.97;;;4.57;;
92;SDS011;16232;48.800;9.002;2022-09-01T11:21:42;4.47;;;4.07;;
92;SDS011;16232;48.800;9.002;2022-09-01T11:26:55;3.83;;;3.53;;
92;SDS011;16232;48.800;9.002;2022-09-01T11:32:10;3.77;;;3.47;;
92;SDS011;16232;48.800;9.002;2022-09-01T11:34:40;3.67;;;3.37;;
92;SDS011;16232;48.800;9.002;2022-09-01T11:37:11;3.70;;;3.40;;
92;SDS011;16232;48.800;9.002;2022-09-01T11:39:40;3.67;;;3.37;;
92;SDS011;16232;48.800;9.002;2022-09-01T11:42:09;3.50;;;3.30;;
92;SDS011;16232;48.800;9.002;2022-09-01T11:44:40;3.30;;;3.00;;
92;SDS011;16232;48.800;9.002;2022-09-01T11:47:11;4.03;;;3.20;;
92;SDS011;16232;48.800;9.002;2022-09-01T11:49:46;3.70;;;3.33;;
92;SDS011;16232;48.800;9.002;2022-09-01T11:52:14;3.80;;;3.50;;
92;SDS011;16232;48.800;9.002;2022-09-01T11:54:42;3.73;;;3.43;;
92;SDS011;16232;48.800;9.002;2022-09-01T11:59:59;3.83;;;3.53;;
92;SDS011;16232;48.800;9.002;2022-09-01T12:02:28;4.47;;;3.50;;
92;SDS011;16232;48.800;9.002;2022-09-01T12:04:58;3.60;;;3.30;;
92;SDS011;16232;48.800;9.002;2022-09-01T12:07:27;5.10;;;4.70;;
92;SDS011;16232;48.800;9.002;2022-09-01T12:09:56;4.33;;;4.03;;
92;SDS011;16232;48.800;9.002;2022-09-01T12:12:25;4.33;;;3.93;;
92;SDS011;16232;48.800;9.002;2022-09-01T12:14:56;6.13;;;3.90;;
92;SDS011;16232;48.800;9.002;2022-09-01T12:17:24;3.80;;;2.97;;
92;SDS011;16232;48.800;9.002;2022-09-01T12:19:52;2.50;;;2.30;;
92;SDS011;16232;48.800;9.002;2022-09-01T12:22:20;2.30;;;2.10;;
92;SDS011;16232;48.800;9.002;2022-09-01T12:24:49;2.90;;;2.70;;
92;SDS011;16232;48.800;9.002;2022-09-01T12:27:16;2.60;;;2.40;;
92;SDS011;16232;48.800;9.002;2022-09-01T12:29:43;2.57;;;2.40;;
92;SDS011;16232;48.800;9.002;2022-09-01T12:32:12;2.80;;;2.40;;
92;SDS011;16232;48.800;9.002;2022-09-01T12:34:40;3.90;;;2.60;;
92;SDS011;16232;48.800;9.002;2022-09-01T12:37:10;2.30;;;2.20;;
92;SDS011;16232;48.800;9.002;2022-09-01T12:39:39;2.70;;;2.50;;
92;SDS011;16232;48.800;9.002;2022-09-01T12:42:11;2.90;;;2.70;;
92;SDS011;16232;48.800;9.002;2022-09-01T12:44:43;3.03;;;2.83;;
92;SDS011;16232;48.800;9.002;2022-09-01T12:47:12;3.20;;;2.90;;
92;SDS011;16232;48.800;9.002;2022-09-01T12:49:40;4.67;;;2.90;;
92;SDS011;16232;48.800;9.002;2022-09-01T12:52:11;4.00;;;2.70;;
92;SDS011;16232;48.800;9.002;2022-09-01T12:54:39;2.90;;;2.70;;
92;SDS011;16232;48.800;9.002;2022-09-01T12:57:07;3.13;;;2.93;;
92;SDS011;16232;48.800;9.002;2022-09-01T12:59:34;4.80;;;3.20;;
92;SDS011;16232;48.800;9.002;2022-09-01T13:04:48;3.80;;;3.50;;
92;SDS011;16232;48.800;9.002;2022-09-01T13:07:16;3.17;;;2.97;;
92;SDS011;16232;48.800;9.002;2022-09-01T13:09:44;3.27;;;3.07;;
92;SDS011;16232;48.800;9.002;2022-09-01T13:12:14;4.10;;;3.37;;
92;SDS011;16232;48.800;9.002;2022-09-01T13:14:42;3.30;;;3.10;;
92;SDS011;16232;48.800;9.002;2022-09-01T13:17:10;3.67;;;3.37;;
92;SDS011;16232;48.800;9.002;2022-09-01T13:19:37;3.50;;;3.30;;
92;SDS011;16232;48.800;9.002;2022-09-01T13:22:05;2.90;;;2.70;;
92;SDS011;16232;48.800;9.002;2022-09-01T13:24:33;3.77;;;3.40;;
92;SDS011;16232;48.800;9.002;2022-09-01T13:27:01;3.40;;;3.13;;
92;SDS011;16232;48.800;9.002;2022-09-01T13:29:29;3.00;;;2.80;;
92;SDS011;16232;48.800;9.002;2022-09-01T13:31:56;3.00;;;2.80;;
92;SDS011;16232;48.800;9.002;2022-09-01T13:34:23;3.03;;;2.83;;
92;SDS011;16232;48.800;9.002;2022-09-01T13:36:51;3.93;;;3.30;;
92;SDS011;16232;48.800;9.002;2022-09-01T13:39:18;4.10;;;3.50;;
92;SDS011;16232;48.800;9.002;2022-09-01T13:41:47;4.37;;;3.30;;
92;SDS011;16232;48.800;9.002;2022-09-01T13:44:14;3.17;;;2.97;;
92;SDS011;16232;48.800;9.002;2022-09-01T13:46:42;3.20;;;3.00;;
92;SDS011;16232;48.800;9.002;2022-09-01T13:49:09;3.37;;;3.17;;
92;SDS011;16232;48.800;9.002;2022-09-01T13:51:38;4.07;;;2.97;;
92;SDS011;16232;48.800;9.002;2022-09-01T13:54:06;3.33;;;3.13;;
92;SDS011;16232;48.800;9.002;2022-09-01T13:56:33;3.67;;;2.90;;
92;SDS011;16232;48.800;9.002;2022-09-01T13:59:03;3.17;;;2.90;;
92;SDS011;16232;48.800;9.002;2022-09-01T14:01:30;3.57;;;3.27;;
92;SDS011;16232;48.800;9.002;2022-09-01T14:03:58;5.27;;;3.63;;
92;SDS011;16232;48.800;9.002;2022-09-01T14:06:27;3.07;;;2.77;;
92;SDS011;16232;48.800;9.002;2022-09-01T14:08:55;3.40;;;3.10;;
92;SDS011;16232;48.800;9.002;2022-09-01T14:11:23;3.40;;;3.10;;
92;SDS011;16232;48.800;9.002;2022-09-01T14:13:52;3.50;;;3.07;;
92;SDS011;16232;48.800;9.002;2022-09-01T14:16:20;3.40;;;3.10;;
92;SDS011;16232;48.800;9.002;2022-09-01T14:18:48;3.50;;;3.20;;
92;SDS011;16232;48.800;9.002;2022-09-01T14:21:15;2.87;;;2.67;;
92;SDS011;16232;48.800;9.002;2022-09-01T14:23:42;3.00;;;2.80;;
92;SDS011;16232;48.800;9.002;2022-09-01T14:26:11;3.63;;;3.30;;
92;SDS011;16232;48.800;9.002;2022-09-01T14:28:39;3.60;;;2.80;;
92;SDS011;16232;48.800;9.002;2022-09-01T14:31:10;3.33;;;3.13;;
92;SDS011;16232;48.800;9.002;2022-09-01T14:33:39;3.53;;;3.23;;
92;SDS011;16232;48.800;9.002;2022-09-01T14:36:06;2.83;;;2.63;;
92;SDS011;16232;48.800;9.002;2022-09-01T14:38:34;3.07;;;2.77;;
92;SDS011;16232;48.800;9.002;2022-09-01T14:41:01;3.00;;;2.80;;
92;SDS011;16232;48.800;9.002;2022-09-01T14:43:28;3.20;;;3.00;;
92;SDS011;16232;48.800;9.002;2022-09-01T14:46:01;3.17;;;2.87;;
92;SDS011;16232;48.800;9.002;2022-09-01T14:48:30;3.10;;;2.90;;
92;SDS011;16232;48.800;9.002;2022-09-01T14:50:59;3.60;;;3.30;;
92;SDS011;16232;48.800;9.002;2022-09-01T14:53:27;2.80;;;2.60;;
92;SDS011;16232;48.800;9.002;2022-09-01T14:55:55;2.60;;;2.40;;
92;SDS011;16232;48.800;9.002;2022-09-01T14:58:22;3.47;;;2.83;;
92;SDS011;16232;48.800;9.002;2022-09-01T15:00:50;4.13;;;2.70;;
92;SDS011;16232;48.800;9.002;2022-09-01T15:03:19;2.83;;;2.63;;
92;SDS011;16232;48.800;9.002;2022-09-01T15:05:46;3.20;;;2.90;;
92;SDS011;16232;48.800;9.002;2022-09-01T15:08:15;3.10;;;2.90;;
92;SDS011;16232;48.800;9.002;2022-09-01T15:10:42;3.30;;;3.00;;
92;SDS011;16232;48.800;9.002;2022-09-01T15:13:10;3.70;;;3.40;;
92;SDS011;16232;48.800;9.002;2022-09-01T15:15:37;3.10;;;2.90;;
92;SDS011;16232;48.800;9.002;2022-09-01T15:18:05;3.20;;;2.90;;
92;SDS011;16232;48.800;9.002;2022-09-01T15:20:32;3.87;;;3.20;;
92;SDS011;16232;48.800;9.002;2022-09-01T15:23:13;3.20;;;3.00;;
92;SDS011;16232;48.800;9.002;2022-09-01T15:25:42;3.10;;;2.90;;
92;SDS011;16232;48.800;9.002;2022-09-01T15:28:09;3.17;;;2.97;;
92;SDS011;16232;48.800;9.002;2022-09-01T15:30:37;2.87;;;2.67;;
92;SDS011;16232;48.800;9.002;2022-09-01T15:33:04;2.60;;;2.40;;
92;SDS011;16232;48.800;9.002;2022-09-01T15:35:33;3.40;;;2.50;;
92;SDS011;16232;48.800;9.002;2022-09-01T15:38:00;2.80;;;2.60;;
92;SDS011;16232;48.800;9.002;2022-09-01T15:40:28;2.40;;;2.20;;
92;SDS011;16232;48.800;9.002;2022-09-01T15:42:57;2.77;;;2.57;;